sensor_id;sensor_type;location;lat;lon;timestamp;temperature;humidity
66422;DHT22;53228;51.380;0.098;2022-10-31T00:01:35;11.80;99.90
66422;DHT22;53228;51.380;0.098;2022-10-31T00:06:31;11.80;99.90
66422;DHT22;53228;51.380;0.098;2022-10-31T00:09:01;11.80;99.90
66422;DHT22;53228;51.380;0.098;2022-10-31T00:13:58;12.30;99.90
66422;DHT22;53228;51.380;0.098;2022-10-31T00:16:28;11.80;99.90
66422;DHT22;53228;51.380;0.098;2022-10-31T00:21:36;11.80;99.90
66422;DHT22;53228;51.380;0.098;2022-10-31T00:41:32;11.60;99.90
66422;DHT22;53228;51.380;0.098;2022-10-31T00:46:30;11.30;99.90
66422;DHT22;53228;51.380;0.098;2022-10-31T00:58:58;11.50;99.90
66422;DHT22;53228;51.380;0.098;2022-10-31T01:03:53;11.40;99.90
66422;DHT22;53228;51.380;0.098;2022-10-31T01:11:20;11.30;99.90
66422;DHT22;53228;51.380;0.098;2022-10-31T01:13:53;11.50;99.90
66422;DHT22;53228;51.380;0.098;2022-10-31T01:16:24;11.70;99.90
66422;DHT22;53228;51.380;0.098;2022-10-31T01:21:26;11.40;99.90
66422;DHT22;53228;51.380;0.098;2022-10-31T01:23:59;11.50;99.90
66422;DHT22;53228;51.380;0.098;2022-10-31T01:26:31;11.50;99.90
66422;DHT22;53228;51.380;0.098;2022-10-31T01:29:04;11.50;99.90
66422;DHT22;53228;51.380;0.098;2022-10-31T01:34:14;11.50;99.90
66422;DHT22;53228;51.380;0.098;2022-10-31T01:41:51;11.50;99.90
66422;DHT22;53228;51.380;0.098;2022-10-31T01:47:03;11.60;99.90
66422;DHT22;53228;51.380;0.098;2022-10-31T01:49:52;11.50;99.90
66422;DHT22;53228;51.380;0.098;2022-10-31T01:52:38;11.60;99.90
66422;DHT22;53228;51.380;0.098;2022-10-31T01:55:18;11.60;99.90
66422;DHT22;53228;51.380;0.098;2022-10-31T01:57:57;11.60;99.90
66422;DHT22;53228;51.380;0.098;2022-10-31T02:02:57;11.60;99.90
66422;DHT22;53228;51.380;0.098;2022-10-31T02:08:16;11.80;99.90
66422;DHT22;53228;51.380;0.098;2022-10-31T02:13:19;11.80;99.90
66422;DHT22;53228;51.380;0.098;2022-10-31T02:34:31;11.90;99.90
66422;DHT22;53228;51.380;0.098;2022-10-31T02:39:52;11.90;99.90
66422;DHT22;53228;51.380;0.098;2022-10-31T02:42:43;11.80;99.90
66422;DHT22;53228;51.380;0.098;2022-10-31T02:48:33;11.80;99.90
66422;DHT22;53228;51.380;0.098;2022-10-31T02:51:04;11.80;99.90
66422;DHT22;53228;51.380;0.098;2022-10-31T02:53:36;11.70;99.90
66422;DHT22;53228;51.380;0.098;2022-10-31T02:56:16;11.70;99.90
66422;DHT22;53228;51.380;0.098;2022-10-31T02:58:48;11.70;99.90
66422;DHT22;53228;51.380;0.098;2022-10-31T03:04:36;11.80;99.90
66422;DHT22;53228;51.380;0.098;2022-10-31T03:07:28;11.80;99.90
66422;DHT22;53228;51.380;0.098;2022-10-31T03:15:21;11.80;99.90
66422;DHT22;53228;51.380;0.098;2022-10-31T03:18:25;11.80;99.90
66422;DHT22;53228;51.380;0.098;2022-10-31T03:21:05;11.80;99.90
66422;DHT22;53228;51.380;0.098;2022-10-31T03:23:40;11.80;99.90
66422;DHT22;53228;51.380;0.098;2022-10-31T03:26:11;13.50;99.90
66422;DHT22;53228;51.380;0.098;2022-10-31T03:28:50;11.80;99.90
66422;DHT22;53228;51.380;0.098;2022-10-31T03:31:25;11.90;99.90
66422;DHT22;53228;51.380;0.098;2022-10-31T03:33:56;11.80;99.90
66422;DHT22;53228;51.380;0.098;2022-10-31T03:36:34;11.90;99.90
66422;DHT22;53228;51.380;0.098;2022-10-31T03:39:06;11.90;99.90
66422;DHT22;53228;51.380;0.098;2022-10-31T03:41:42;11.90;99.90
66422;DHT22;53228;51.380;0.098;2022-10-31T03:44:19;11.90;99.90
66422;DHT22;53228;51.380;0.098;2022-10-31T03:49:27;11.90;99.90
66422;DHT22;53228;51.380;0.098;2022-10-31T03:58:06;11.90;99.90
66422;DHT22;53228;51.380;0.098;2022-10-31T04:03:17;11.90;99.90
66422;DHT22;53228;51.380;0.098;2022-10-31T04:05:55;14.10;99.90
66422;DHT22;53228;51.380;0.098;2022-10-31T04:08:28;11.80;99.90
66422;DHT22;53228;51.380;0.098;2022-10-31T04:13:33;11.80;99.90
66422;DHT22;53228;51.380;0.098;2022-10-31T04:16:09;11.80;99.90
66422;DHT22;53228;51.380;0.098;2022-10-31T04:21:16;11.70;99.90
66422;DHT22;53228;51.380;0.098;2022-10-31T04:41:26;11.50;99.90
66422;DHT22;53228;51.380;0.098;2022-10-31T04:48:59;11.50;99.90
66422;DHT22;53228;51.380;0.098;2022-10-31T04:56:28;11.50;99.90
66422;DHT22;53228;51.380;0.098;2022-10-31T05:14:36;11.80;99.90
66422;DHT22;53228;51.380;0.098;2022-10-31T05:20:13;8.80;99.90
66422;DHT22;53228;51.380;0.098;2022-10-31T05:22:57;11.90;99.90
66422;DHT22;53228;51.380;0.098;2022-10-31T05:25:27;12.00;99.90
66422;DHT22;53228;51.380;0.098;2022-10-31T05:27:56;12.00;99.90
66422;DHT22;53228;51.380;0.098;2022-10-31T05:30:29;12.10;99.90
66422;DHT22;53228;51.380;0.098;2022-10-31T05:35:46;12.00;99.90
66422;DHT22;53228;51.380;0.098;2022-10-31T05:44:01;12.10;99.90
66422;DHT22;53228;51.380;0.098;2022-10-31T05:52:08;12.30;99.90
66422;DHT22;53228;51.380;0.098;2022-10-31T06:05:16;12.30;99.90
66422;DHT22;53228;51.380;0.098;2022-10-31T06:07:46;12.00;99.90
66422;DHT22;53228;51.380;0.098;2022-10-31T06:18:04;12.00;99.90
66422;DHT22;53228;51.380;0.098;2022-10-31T06:33:25;11.80;99.90
66422;DHT22;53228;51.380;0.098;2022-10-31T06:35:56;11.80;99.90
66422;DHT22;53228;51.380;0.098;2022-10-31T06:38:26;11.90;99.90
66422;DHT22;53228;51.380;0.098;2022-10-31T06:43:27;11.70;99.90
66422;DHT22;53228;51.380;0.098;2022-10-31T07:09:45;11.80;99.90
66422;DHT22;53228;51.380;0.098;2022-10-31T07:17:23;11.50;99.90
66422;DHT22;53228;51.380;0.098;2022-10-31T07:19:58;11.40;99.90
66422;DHT22;53228;51.380;0.098;2022-10-31T07:22:33;11.40;99.90
66422;DHT22;53228;51.380;0.098;2022-10-31T07:43:10;11.40;99.90
66422;DHT22;53228;51.380;0.098;2022-10-31T07:45:58;11.70;99.90
66422;DHT22;53228;51.380;0.098;2022-10-31T07:51:36;11.50;99.90
66422;DHT22;53228;51.380;0.098;2022-10-31T07:57:08;11.40;99.90
66422;DHT22;53228;51.380;0.098;2022-10-31T08:02:08;11.60;99.90
66422;DHT22;53228;51.380;0.098;2022-10-31T08:04:48;11.60;99.90
66422;DHT22;53228;51.380;0.098;2022-10-31T08:07:36;11.70;99.90
66422;DHT22;53228;51.380;0.098;2022-10-31T08:20:05;12.00;99.90
66422;DHT22;53228;51.380;0.098;2022-10-31T08:25:10;12.10;99.90
66422;DHT22;53228;51.380;0.098;2022-10-31T08:27:38;12.30;99.90
66422;DHT22;53228;51.380;0.098;2022-10-31T08:33:03;12.50;99.90
66422;DHT22;53228;51.380;0.098;2022-10-31T08:35:58;12.70;99.90
66422;DHT22;53228;51.380;0.098;2022-10-31T08:38:48;12.80;99.90
66422;DHT22;53228;51.380;0.098;2022-10-31T08:43:44;13.30;99.90
66422;DHT22;53228;51.380;0.098;2022-10-31T08:53:38;13.60;99.90
66422;DHT22;53228;51.380;0.098;2022-10-31T08:56:33;13.60;99.90
66422;DHT22;53228;51.380;0.098;2022-10-31T09:27:37;14.50;99.90
66422;DHT22;53228;51.380;0.098;2022-10-31T09:30:06;14.70;99.90
66422;DHT22;53228;51.380;0.098;2022-10-31T09:32:34;14.70;99.90
66422;DHT22;53228;51.380;0.098;2022-10-31T09:35:02;14.80;99.90
66422;DHT22;53228;51.380;0.098;2022-10-31T09:40:00;14.90;99.90
66422;DHT22;53228;51.380;0.098;2022-10-31T09:42:53;14.90;99.90
66422;DHT22;53228;51.380;0.098;2022-10-31T09:45:32;15.00;99.90
66422;DHT22;53228;51.380;0.098;2022-10-31T09:48:17;15.00;99.90
66422;DHT22;53228;51.380;0.098;2022-10-31T09:51:31;15.20;99.90
66422;DHT22;53228;51.380;0.098;2022-10-31T09:59:35;15.40;99.90
66422;DHT22;53228;51.380;0.098;2022-10-31T10:17:03;15.70;99.90
66422;DHT22;53228;51.380;0.098;2022-10-31T10:27:50;15.80;99.90
66422;DHT22;53228;51.380;0.098;2022-10-31T10:33:00;15.90;99.90
66422;DHT22;53228;51.380;0.098;2022-10-31T10:35:33;16.10;99.90
66422;DHT22;53228;51.380;0.098;2022-10-31T10:40:58;16.00;99.90
66422;DHT22;53228;51.380;0.098;2022-10-31T10:43:33;16.00;99.90
66422;DHT22;53228;51.380;0.098;2022-10-31T11:00:39;16.10;99.90
66422;DHT22;53228;51.380;0.098;2022-10-31T11:05:47;16.30;99.90
66422;DHT22;53228;51.380;0.098;2022-10-31T11:08:31;16.40;99.90
66422;DHT22;53228;51.380;0.098;2022-10-31T11:14:02;16.60;99.90
